sensor_id;sensor_type;location;lat;lon;timestamp;P1;durP1;ratioP1;P2;durP2;ratioP2
36629;SDS011;36256;42.154;23.002;2023-07-31T02:23:19;8.88;;;5.55;;
36629;SDS011;36256;42.154;23.002;2023-07-31T02:25:46;8.05;;;5.43;;
36629;SDS011;36256;42.154;23.002;2023-07-31T02:28:13;7.80;;;5.28;;
36629;SDS011;36256;42.154;23.002;2023-07-31T02:30:42;8.35;;;5.15;;
36629;SDS011;36256;42.154;23.002;2023-07-31T02:33:10;6.47;;;5.57;;
36629;SDS011;36256;42.154;23.002;2023-07-31T02:35:37;13.23;;;5.32;;
36629;SDS011;36256;42.154;23.002;2023-07-31T02:38:04;6.15;;;5.45;;
36629;SDS011;36256;42.154;23.002;2023-07-31T02:40:30;6.95;;;5.10;;
36629;SDS011;36256;42.154;23.002;2023-07-31T02:42:57;7.35;;;5.15;;
36629;SDS011;36256;42.154;23.002;2023-07-31T02:45:24;8.40;;;5.10;;
36629;SDS011;36256;42.154;23.002;2023-07-31T02:47:50;7.80;;;5.32;;
36629;SDS011;36256;42.154;23.002;2023-07-31T02:50:17;7.10;;;5.05;;
36629;SDS011;36256;42.154;23.002;2023-07-31T02:52:44;7.22;;;5.20;;
36629;SDS011;36256;42.154;23.002;2023-07-31T02:55:11;5.68;;;5.10;;
36629;SDS011;36256;42.154;23.002;2023-07-31T02:57:38;7.35;;;5.55;;
36629;SDS011;36256;42.154;23.002;2023-07-31T03:00:04;9.07;;;5.47;;
36629;SDS011;36256;42.154;23.002;2023-07-31T03:02:32;8.57;;;5.57;;
36629;SDS011;36256;42.154;23.002;2023-07-31T03:04:59;7.40;;;5.35;;
36629;SDS011;36256;42.154;23.002;2023-07-31T03:07:26;6.63;;;5.40;;
36629;SDS011;36256;42.154;23.002;2023-07-31T03:09:53;7.07;;;5.35;;
36629;SDS011;36256;42.154;23.002;2023-07-31T03:12:19;9.32;;;5.22;;
36629;SDS011;36256;42.154;23.002;2023-07-31T03:14:46;7.85;;;5.40;;
36629;SDS011;36256;42.154;23.002;2023-07-31T03:17:13;9.57;;;6.38;;
36629;SDS011;36256;42.154;23.002;2023-07-31T03:19:39;9.52;;;5.93;;
36629;SDS011;36256;42.154;23.002;2023-07-31T03:22:06;8.52;;;6.18;;
36629;SDS011;36256;42.154;23.002;2023-07-31T03:24:32;6.70;;;5.93;;
36629;SDS011;36256;42.154;23.002;2023-07-31T03:26:59;7.20;;;6.15;;
36629;SDS011;36256;42.154;23.002;2023-07-31T03:29:26;8.90;;;6.05;;
36629;SDS011;36256;42.154;23.002;2023-07-31T03:31:52;7.15;;;6.05;;
36629;SDS011;36256;42.154;23.002;2023-07-31T03:34:19;7.65;;;5.78;;
36629;SDS011;36256;42.154;23.002;2023-07-31T03:36:46;7.47;;;6.10;;
36629;SDS011;36256;42.154;23.002;2023-07-31T03:39:13;8.55;;;5.78;;
36629;SDS011;36256;42.154;23.002;2023-07-31T03:41:39;6.90;;;6.03;;
36629;SDS011;36256;42.154;23.002;2023-07-31T03:44:06;9.73;;;6.00;;
36629;SDS011;36256;42.154;23.002;2023-07-31T03:46:33;9.27;;;6.03;;
36629;SDS011;36256;42.154;23.002;2023-07-31T03:49:00;6.47;;;5.55;;
36629;SDS011;36256;42.154;23.002;2023-07-31T03:51:26;7.68;;;6.25;;
36629;SDS011;36256;42.154;23.002;2023-07-31T03:53:53;8.57;;;5.90;;
36629;SDS011;36256;42.154;23.002;2023-07-31T03:56:20;8.10;;;5.68;;
36629;SDS011;36256;42.154;23.002;2023-07-31T03:58:46;7.22;;;5.90;;
36629;SDS011;36256;42.154;23.002;2023-07-31T04:01:13;6.72;;;6.03;;
36629;SDS011;36256;42.154;23.002;2023-07-31T04:03:40;9.85;;;6.25;;
36629;SDS011;36256;42.154;23.002;2023-07-31T04:06:07;8.25;;;6.22;;
36629;SDS011;36256;42.154;23.002;2023-07-31T04:08:34;8.68;;;6.20;;
36629;SDS011;36256;42.154;23.002;2023-07-31T04:11:00;8.07;;;6.10;;
36629;SDS011;36256;42.154;23.002;2023-07-31T04:13:28;7.82;;;5.80;;
36629;SDS011;36256;42.154;23.002;2023-07-31T04:15:56;7.10;;;6.40;;
36629;SDS011;36256;42.154;23.002;2023-07-31T04:18:24;7.93;;;6.03;;
36629;SDS011;36256;42.154;23.002;2023-07-31T04:20:51;8.45;;;6.53;;
36629;SDS011;36256;42.154;23.002;2023-07-31T04:23:18;7.68;;;6.20;;
36629;SDS011;36256;42.154;23.002;2023-07-31T04:25:45;8.68;;;6.07;;
36629;SDS011;36256;42.154;23.002;2023-07-31T04:28:11;7.85;;;5.97;;
36629;SDS011;36256;42.154;23.002;2023-07-31T04:30:38;9.00;;;6.13;;
36629;SDS011;36256;42.154;23.002;2023-07-31T04:33:05;6.95;;;5.97;;
36629;SDS011;36256;42.154;23.002;2023-07-31T04:35:32;10.07;;;5.82;;
36629;SDS011;36256;42.154;23.002;2023-07-31T04:37:59;8.57;;;5.63;;
36629;SDS011;36256;42.154;23.002;2023-07-31T04:40:25;7.68;;;6.30;;
36629;SDS011;36256;42.154;23.002;2023-07-31T04:42:52;7.38;;;6.20;;
36629;SDS011;36256;42.154;23.002;2023-07-31T04:45:19;8.02;;;5.95;;
36629;SDS011;36256;42.154;23.002;2023-07-31T04:47:46;7.90;;;6.22;;
36629;SDS011;36256;42.154;23.002;2023-07-31T04:50:12;7.38;;;6.10;;
36629;SDS011;36256;42.154;23.002;2023-07-31T04:52:39;8.65;;;6.28;;
36629;SDS011;36256;42.154;23.002;2023-07-31T04:55:06;7.15;;;6.43;;
36629;SDS011;36256;42.154;23.002;2023-07-31T04:57:33;7.43;;;6.20;;
36629;SDS011;36256;42.154;23.002;2023-07-31T04:59:59;6.80;;;5.82;;
36629;SDS011;36256;42.154;23.002;2023-07-31T05:02:26;8.18;;;6.32;;
36629;SDS011;36256;42.154;23.002;2023-07-31T05:04:53;7.45;;;6.65;;
36629;SDS011;36256;42.154;23.002;2023-07-31T05:07:19;7.43;;;6.30;;
36629;SDS011;36256;42.154;23.002;2023-07-31T05:09:46;12.25;;;6.15;;
36629;SDS011;36256;42.154;23.002;2023-07-31T05:12:13;7.88;;;6.50;;
36629;SDS011;36256;42.154;23.002;2023-07-31T05:14:40;8.63;;;6.30;;
36629;SDS011;36256;42.154;23.002;2023-07-31T05:17:07;8.77;;;6.97;;
36629;SDS011;36256;42.154;23.002;2023-07-31T05:19:34;8.95;;;7.13;;
36629;SDS011;36256;42.154;23.002;2023-07-31T05:22:01;9.15;;;6.50;;
36629;SDS011;36256;42.154;23.002;2023-07-31T05:24:27;8.93;;;7.38;;
36629;SDS011;36256;42.154;23.002;2023-07-31T05:26:54;9.73;;;6.93;;
36629;SDS011;36256;42.154;23.002;2023-07-31T05:29:21;8.57;;;6.57;;
36629;SDS011;36256;42.154;23.002;2023-07-31T05:31:48;11.48;;;6.57;;
36629;SDS011;36256;42.154;23.002;2023-07-31T05:34:14;10.48;;;8.23;;
36629;SDS011;36256;42.154;23.002;2023-07-31T05:36:41;9.77;;;7.72;;
36629;SDS011;36256;42.154;23.002;2023-07-31T05:39:08;14.25;;;10.30;;
36629;SDS011;36256;42.154;23.002;2023-07-31T05:41:35;24.42;;;11.75;;
36629;SDS011;36256;42.154;23.002;2023-07-31T05:44:02;13.57;;;10.85;;
36629;SDS011;36256;42.154;23.002;2023-07-31T05:46:29;11.70;;;10.38;;
36629;SDS011;36256;42.154;23.002;2023-07-31T05:48:57;14.43;;;11.20;;
36629;SDS011;36256;42.154;23.002;2023-07-31T05:51:27;15.85;;;12.95;;
36629;SDS011;36256;42.154;23.002;2023-07-31T05:53:54;14.57;;;11.48;;
36629;SDS011;36256;42.154;23.002;2023-07-31T05:56:21;13.52;;;12.07;;
36629;SDS011;36256;42.154;23.002;2023-07-31T05:58:48;16.35;;;12.95;;
36629;SDS011;36256;42.154;23.002;2023-07-31T06:03:42;20.65;;;14.60;;
36629;SDS011;36256;42.154;23.002;2023-07-31T06:08:35;16.90;;;14.52;;
36629;SDS011;36256;42.154;23.002;2023-07-31T06:11:02;17.98;;;15.55;;
36629;SDS011;36256;42.154;23.002;2023-07-31T06:13:30;17.40;;;15.20;;
36629;SDS011;36256;42.154;23.002;2023-07-31T06:15:56;17.42;;;15.60;;
36629;SDS011;36256;42.154;23.002;2023-07-31T06:18:23;17.05;;;14.75;;
36629;SDS011;36256;42.154;23.002;2023-07-31T06:20:50;17.90;;;16.00;;
36629;SDS011;36256;42.154;23.002;2023-07-31T06:23:19;17.10;;;15.30;;
36629;SDS011;36256;42.154;23.002;2023-07-31T06:25:47;20.73;;;16.13;;
36629;SDS011;36256;42.154;23.002;2023-07-31T06:28:13;21.73;;;15.48;;
36629;SDS011;36256;42.154;23.002;2023-07-31T06:30:40;24.23;;;16.42;;
36629;SDS011;36256;42.154;23.002;2023-07-31T06:33:08;19.17;;;16.77;;
36629;SDS011;36256;42.154;23.002;2023-07-31T06:35:35;20.55;;;16.63;;
36629;SDS011;36256;42.154;23.002;2023-07-31T06:38:02;17.08;;;15.23;;
36629;SDS011;36256;42.154;23.002;2023-07-31T06:40:29;18.45;;;16.50;;
36629;SDS011;36256;42.154;23.002;2023-07-31T06:42:56;19.13;;;17.15;;
36629;SDS011;36256;42.154;23.002;2023-07-31T06:45:23;18.75;;;16.20;;
36629;SDS011;36256;42.154;23.002;2023-07-31T06:47:50;21.20;;;17.17;;
36629;SDS011;36256;42.154;23.002;2023-07-31T06:50:16;17.40;;;15.60;;
36629;SDS011;36256;42.154;23.002;2023-07-31T06:52:43;21.05;;;16.88;;
36629;SDS011;36256;42.154;23.002;2023-07-31T06:55:17;16.13;;;14.45;;
36629;SDS011;36256;42.154;23.002;2023-07-31T06:57:46;16.25;;;14.55;;
36629;SDS011;36256;42.154;23.002;2023-07-31T07:00:13;16.40;;;13.52;;
36629;SDS011;36256;42.154;23.002;2023-07-31T07:02:40;16.20;;;14.35;;
36629;SDS011;36256;42.154;23.002;2023-07-31T07:05:07;15.88;;;14.38;;
36629;SDS011;36256;42.154;23.002;2023-07-31T07:07:35;14.48;;;12.82;;
36629;SDS011;36256;42.154;23.002;2023-07-31T07:12:30;13.75;;;12.32;;
36629;SDS011;36256;42.154;23.002;2023-07-31T07:14:57;11.93;;;10.65;;
36629;SDS011;36256;42.154;23.002;2023-07-31T07:17:24;12.77;;;11.30;;
36629;SDS011;36256;42.154;23.002;2023-07-31T07:19:52;12.07;;;10.88;;
36629;SDS011;36256;42.154;23.002;2023-07-31T07:22:19;12.57;;;11.10;;
36629;SDS011;36256;42.154;23.002;2023-07-31T07:24:46;11.70;;;10.50;;
36629;SDS011;36256;42.154;23.002;2023-07-31T07:27:13;11.43;;;10.32;;
36629;SDS011;36256;42.154;23.002;2023-07-31T07:29:39;10.98;;;9.82;;
36629;SDS011;36256;42.154;23.002;2023-07-31T07:32:06;11.32;;;8.82;;
36629;SDS011;36256;42.154;23.002;2023-07-31T07:34:33;9.70;;;8.70;;
36629;SDS011;36256;42.154;23.002;2023-07-31T07:37:00;9.20;;;8.25;;
36629;SDS011;36256;42.154;23.002;2023-07-31T07:39:27;9.02;;;8.15;;
36629;SDS011;36256;42.154;23.002;2023-07-31T07:41:53;9.60;;;8.70;;
36629;SDS011;36256;42.154;23.002;2023-07-31T07:46:47;8.10;;;7.30;;
36629;SDS011;36256;42.154;23.002;2023-07-31T07:49:14;9.15;;;7.70;;
36629;SDS011;36256;42.154;23.002;2023-07-31T07:51:40;8.50;;;7.70;;
36629;SDS011;36256;42.154;23.002;2023-07-31T07:54:07;9.02;;;8.23;;
36629;SDS011;36256;42.154;23.002;2023-07-31T07:56:34;8.57;;;7.88;;
36629;SDS011;36256;42.154;23.002;2023-07-31T07:59:03;9.77;;;7.85;;
36629;SDS011;36256;42.154;23.002;2023-07-31T08:01:30;9.32;;;7.43;;
36629;SDS011;36256;42.154;23.002;2023-07-31T08:03:57;9.15;;;8.20;;
36629;SDS011;36256;42.154;23.002;2023-07-31T08:06:24;8.77;;;7.97;;
36629;SDS011;36256;42.154;23.002;2023-07-31T08:08:51;10.45;;;7.60;;
36629;SDS011;36256;42.154;23.002;2023-07-31T08:11:18;10.82;;;8.07;;
36629;SDS011;36256;42.154;23.002;2023-07-31T08:13:44;9.80;;;7.28;;
36629;SDS011;36256;42.154;23.002;2023-07-31T08:16:11;9.10;;;7.88;;
36629;SDS011;36256;42.154;23.002;2023-07-31T08:18:38;10.65;;;7.53;;
36629;SDS011;36256;42.154;23.002;2023-07-31T08:21:06;7.85;;;7.15;;
36629;SDS011;36256;42.154;23.002;2023-07-31T08:23:33;9.43;;;7.20;;
36629;SDS011;36256;42.154;23.002;2023-07-31T08:26:00;8.15;;;7.45;;
36629;SDS011;36256;42.154;23.002;2023-07-31T08:28:27;8.63;;;7.22;;
36629;SDS011;36256;42.154;23.002;2023-07-31T08:30:53;8.85;;;7.95;;
36629;SDS011;36256;42.154;23.002;2023-07-31T08:33:20;7.95;;;7.25;;
36629;SDS011;36256;42.154;23.002;2023-07-31T08:35:47;6.50;;;6.00;;
36629;SDS011;36256;42.154;23.002;2023-07-31T08:38:14;7.53;;;6.78;;
36629;SDS011;36256;42.154;23.002;2023-07-31T08:40:41;9.25;;;6.05;;
36629;SDS011;36256;42.154;23.002;2023-07-31T08:43:08;7.82;;;6.55;;
36629;SDS011;36256;42.154;23.002;2023-07-31T08:45:35;6.97;;;5.70;;
36629;SDS011;36256;42.154;23.002;2023-07-31T08:48:02;15.38;;;5.30;;
36629;SDS011;36256;42.154;23.002;2023-07-31T08:52:56;6.03;;;5.53;;
36629;SDS011;36256;42.154;23.002;2023-07-31T08:55:24;5.75;;;5.25;;
36629;SDS011;36256;42.154;23.002;2023-07-31T08:57:51;5.53;;;5.03;;
36629;SDS011;36256;42.154;23.002;2023-07-31T09:00:21;5.32;;;4.82;;
36629;SDS011;36256;42.154;23.002;2023-07-31T09:05:43;6.78;;;4.80;;
36629;SDS011;36256;42.154;23.002;2023-07-31T09:08:15;6.07;;;4.47;;
36629;SDS011;36256;42.154;23.002;2023-07-31T09:10:48;5.68;;;4.28;;
36629;SDS011;36256;42.154;23.002;2023-07-31T09:13:17;6.53;;;4.65;;
36629;SDS011;36256;42.154;23.002;2023-07-31T09:15:45;5.90;;;4.70;;
36629;SDS011;36256;42.154;23.002;2023-07-31T09:18:12;5.18;;;4.65;;
36629;SDS011;36256;42.154;23.002;2023-07-31T09:20:40;5.80;;;4.72;;
36629;SDS011;36256;42.154;23.002;2023-07-31T09:23:11;5.30;;;4.47;;
36629;SDS011;36256;42.154;23.002;2023-07-31T09:25:40;24.90;;;5.63;;
36629;SDS011;36256;42.154;23.002;2023-07-31T09:28:11;5.53;;;4.72;;
36629;SDS011;36256;42.154;23.002;2023-07-31T09:30:51;4.53;;;4.13;;
36629;SDS011;36256;42.154;23.002;2023-07-31T09:33:18;4.47;;;4.07;;
36629;SDS011;36256;42.154;23.002;2023-07-31T09:35:46;5.18;;;3.67;;
36629;SDS011;36256;42.154;23.002;2023-07-31T09:38:15;4.25;;;3.85;;
36629;SDS011;36256;42.154;23.002;2023-07-31T09:40:43;4.47;;;4.07;;
36629;SDS011;36256;42.154;23.002;2023-07-31T09:43:18;4.60;;;4.07;;
36629;SDS011;36256;42.154;23.002;2023-07-31T09:45:47;6.32;;;3.85;;
36629;SDS011;36256;42.154;23.002;2023-07-31T09:48:15;8.10;;;3.95;;
36629;SDS011;36256;42.154;23.002;2023-07-31T09:50:44;5.05;;;3.35;;
36629;SDS011;36256;42.154;23.002;2023-07-31T09:53:13;6.05;;;3.70;;
36629;SDS011;36256;42.154;23.002;2023-07-31T09:55:41;5.88;;;3.92;;
36629;SDS011;36256;42.154;23.002;2023-07-31T09:58:09;3.97;;;3.30;;
36629;SDS011;36256;42.154;23.002;2023-07-31T10:00:37;6.15;;;4.78;;
36629;SDS011;36256;42.154;23.002;2023-07-31T10:03:05;4.43;;;3.40;;
36629;SDS011;36256;42.154;23.002;2023-07-31T10:05:34;4.25;;;3.58;;
36629;SDS011;36256;42.154;23.002;2023-07-31T10:08:06;5.55;;;3.20;;
36629;SDS011;36256;42.154;23.002;2023-07-31T10:10:36;4.85;;;3.28;;
36629;SDS011;36256;42.154;23.002;2023-07-31T10:13:07;25.70;;;4.10;;
36629;SDS011;36256;42.154;23.002;2023-07-31T10:15:34;3.20;;;2.90;;
36629;SDS011;36256;42.154;23.002;2023-07-31T10:18:02;5.25;;;3.00;;
36629;SDS011;36256;42.154;23.002;2023-07-31T10:20:32;3.33;;;2.78;;
36629;SDS011;36256;42.154;23.002;2023-07-31T10:22:59;2.78;;;2.58;;
36629;SDS011;36256;42.154;23.002;2023-07-31T10:27:54;2.90;;;2.60;;
36629;SDS011;36256;42.154;23.002;2023-07-31T10:30:22;7.63;;;2.55;;
36629;SDS011;36256;42.154;23.002;2023-07-31T10:32:53;3.85;;;2.20;;
36629;SDS011;36256;42.154;23.002;2023-07-31T10:35:20;10.77;;;2.20;;
36629;SDS011;36256;42.154;23.002;2023-07-31T10:37:48;5.07;;;2.55;;
36629;SDS011;36256;42.154;23.002;2023-07-31T10:40:16;2.33;;;2.10;;
36629;SDS011;36256;42.154;23.002;2023-07-31T10:42:48;2.90;;;2.15;;
36629;SDS011;36256;42.154;23.002;2023-07-31T10:45:42;2.95;;;2.10;;
36629;SDS011;36256;42.154;23.002;2023-07-31T10:48:13;6.25;;;2.03;;
36629;SDS011;36256;42.154;23.002;2023-07-31T10:50:56;1.92;;;1.70;;
36629;SDS011;36256;42.154;23.002;2023-07-31T10:53:27;2.53;;;1.90;;
36629;SDS011;36256;42.154;23.002;2023-07-31T10:56:00;4.32;;;1.88;;
36629;SDS011;36256;42.154;23.002;2023-07-31T10:58:28;2.92;;;1.65;;
36629;SDS011;36256;42.154;23.002;2023-07-31T11:03:27;1.65;;;1.55;;
36629;SDS011;36256;42.154;23.002;2023-07-31T11:06:10;2.30;;;1.70;;
36629;SDS011;36256;42.154;23.002;2023-07-31T11:08:41;3.75;;;1.73;;
36629;SDS011;36256;42.154;23.002;2023-07-31T11:11:10;3.05;;;1.80;;
36629;SDS011;36256;42.154;23.002;2023-07-31T11:13:51;2.00;;;1.80;;
36629;SDS011;36256;42.154;23.002;2023-07-31T11:16:20;2.33;;;1.60;;
36629;SDS011;36256;42.154;23.002;2023-07-31T11:18:49;2.13;;;1.92;;
36629;SDS011;36256;42.154;23.002;2023-07-31T11:21:18;2.13;;;1.92;;
36629;SDS011;36256;42.154;23.002;2023-07-31T11:23:47;2.42;;;2.08;;
36629;SDS011;36256;42.154;23.002;2023-07-31T11:26:19;2.75;;;2.10;;
36629;SDS011;36256;42.154;23.002;2023-07-31T11:28:47;3.55;;;2.00;;
36629;SDS011;36256;42.154;23.002;2023-07-31T11:31:14;3.97;;;2.10;;
36629;SDS011;36256;42.154;23.002;2023-07-31T11:33:41;5.40;;;1.98;;
36629;SDS011;36256;42.154;23.002;2023-07-31T11:36:14;4.22;;;1.77;;
36629;SDS011;36256;42.154;23.002;2023-07-31T11:38:42;2.03;;;1.83;;
36629;SDS011;36256;42.154;23.002;2023-07-31T11:41:09;3.10;;;1.60;;
36629;SDS011;36256;42.154;23.002;2023-07-31T11:43:36;1.95;;;1.77;;
36629;SDS011;36256;42.154;23.002;2023-07-31T11:46:03;2.83;;;1.80;;
36629;SDS011;36256;42.154;23.002;2023-07-31T11:51:00;3.75;;;1.80;;
36629;SDS011;36256;42.154;23.002;2023-07-31T11:56:13;2.20;;;2.00;;
36629;SDS011;36256;42.154;23.002;2023-07-31T11:58:42;2.20;;;1.98;;
36629;SDS011;36256;42.154;23.002;2023-07-31T12:01:13;2.28;;;1.92;;
36629;SDS011;36256;42.154;23.002;2023-07-31T12:03:43;2.25;;;1.90;;
36629;SDS011;36256;42.154;23.002;2023-07-31T12:06:11;2.35;;;1.70;;
36629;SDS011;36256;42.154;23.002;2023-07-31T12:08:38;2.05;;;1.88;;
36629;SDS011;36256;42.154;23.002;2023-07-31T12:11:05;4.68;;;1.80;;
36629;SDS011;36256;42.154;23.002;2023-07-31T12:13:36;1.90;;;1.77;;
36629;SDS011;36256;42.154;23.002;2023-07-31T12:16:03;1.98;;;1.73;;
36629;SDS011;36256;42.154;23.002;2023-07-31T12:18:35;3.42;;;1.80;;
36629;SDS011;36256;42.154;23.002;2023-07-31T12:21:07;3.33;;;1.70;;
36629;SDS011;36256;42.154;23.002;2023-07-31T12:23:35;2.55;;;1.70;;
36629;SDS011;36256;42.154;23.002;2023-07-31T12:26:11;2.22;;;1.67;;
36629;SDS011;36256;42.154;23.002;2023-07-31T12:28:44;2.38;;;1.80;;
36629;SDS011;36256;42.154;23.002;2023-07-31T12:31:14;2.05;;;1.80;;
36629;SDS011;36256;42.154;23.002;2023-07-31T12:33:41;2.03;;;1.80;;
36629;SDS011;36256;42.154;23.002;2023-07-31T12:36:12;2.00;;;1.80;;
36629;SDS011;36256;42.154;23.002;2023-07-31T12:38:43;2.05;;;1.90;;
36629;SDS011;36256;42.154;23.002;2023-07-31T12:41:10;3.30;;;1.92;;
36629;SDS011;36256;42.154;23.002;2023-07-31T12:43:38;1.95;;;1.77;;
36629;SDS011;36256;42.154;23.002;2023-07-31T12:46:06;3.08;;;1.90;;
36629;SDS011;36256;42.154;23.002;2023-07-31T12:48:34;2.35;;;1.92;;
36629;SDS011;36256;42.154;23.002;2023-07-31T12:51:01;2.53;;;1.75;;
36629;SDS011;36256;42.154;23.002;2023-07-31T12:53:28;2.10;;;1.90;;
36629;SDS011;36256;42.154;23.002;2023-07-31T12:55:56;2.30;;;1.98;;
36629;SDS011;36256;42.154;23.002;2023-07-31T12:58:23;2.53;;;1.90;;
36629;SDS011;36256;42.154;23.002;2023-07-31T13:03:16;2.05;;;1.83;;
36629;SDS011;36256;42.154;23.002;2023-07-31T13:05:43;2.45;;;2.10;;
36629;SDS011;36256;42.154;23.002;2023-07-31T13:08:10;3.45;;;2.20;;
36629;SDS011;36256;42.154;23.002;2023-07-31T13:10:38;3.67;;;2.40;;
36629;SDS011;36256;42.154;23.002;2023-07-31T13:13:05;3.80;;;2.58;;
36629;SDS011;36256;42.154;23.002;2023-07-31T13:15:32;3.03;;;2.75;;
36629;SDS011;36256;42.154;23.002;2023-07-31T13:17:58;3.80;;;3.35;;
36629;SDS011;36256;42.154;23.002;2023-07-31T13:20:26;3.40;;;3.10;;
36629;SDS011;36256;42.154;23.002;2023-07-31T13:22:52;4.70;;;3.25;;
36629;SDS011;36256;42.154;23.002;2023-07-31T13:25:19;5.35;;;3.38;;
36629;SDS011;36256;42.154;23.002;2023-07-31T13:27:46;3.88;;;3.53;;
36629;SDS011;36256;42.154;23.002;2023-07-31T13:30:12;4.43;;;4.03;;
36629;SDS011;36256;42.154;23.002;2023-07-31T13:32:39;5.13;;;3.90;;
36629;SDS011;36256;42.154;23.002;2023-07-31T13:35:06;4.40;;;4.00;;
36629;SDS011;36256;42.154;23.002;2023-07-31T13:37:34;8.27;;;4.47;;
36629;SDS011;36256;42.154;23.002;2023-07-31T13:40:01;5.28;;;4.07;;
36629;SDS011;36256;42.154;23.002;2023-07-31T13:42:31;3.70;;;3.40;;
36629;SDS011;36256;42.154;23.002;2023-07-31T13:44:59;4.43;;;4.03;;
36629;SDS011;36256;42.154;23.002;2023-07-31T13:47:28;4.45;;;3.97;;
36629;SDS011;36256;42.154;23.002;2023-07-31T13:49:55;4.32;;;3.80;;
36629;SDS011;36256;42.154;23.002;2023-07-31T13:52:21;3.85;;;3.53;;
36629;SDS011;36256;42.154;23.002;2023-07-31T13:54:48;4.50;;;4.10;;
36629;SDS011;36256;42.154;23.002;2023-07-31T13:57:14;4.03;;;3.72;;
36629;SDS011;36256;42.154;23.002;2023-07-31T13:59:42;4.40;;;4.00;;
36629;SDS011;36256;42.154;23.002;2023-07-31T14:02:08;5.47;;;4.60;;
36629;SDS011;36256;42.154;23.002;2023-07-31T14:04:35;12.30;;;5.20;;
36629;SDS011;36256;42.154;23.002;2023-07-31T14:07:02;5.55;;;5.03;;
36629;SDS011;36256;42.154;23.002;2023-07-31T14:09:30;5.82;;;5.32;;
36629;SDS011;36256;42.154;23.002;2023-07-31T14:11:57;5.85;;;5.35;;
36629;SDS011;36256;42.154;23.002;2023-07-31T14:14:24;8.45;;;5.55;;
36629;SDS011;36256;42.154;23.002;2023-07-31T14:16:51;6.30;;;5.45;;
36629;SDS011;36256;42.154;23.002;2023-07-31T14:21:45;5.80;;;5.30;;
36629;SDS011;36256;42.154;23.002;2023-07-31T14:24:31;6.13;;;5.32;;
36629;SDS011;36256;42.154;23.002;2023-07-31T14:26:58;5.93;;;5.40;;
36629;SDS011;36256;42.154;23.002;2023-07-31T14:29:25;6.18;;;5.55;;
36629;SDS011;36256;42.154;23.002;2023-07-31T14:31:51;5.55;;;5.15;;
36629;SDS011;36256;42.154;23.002;2023-07-31T14:34:18;6.47;;;5.90;;
36629;SDS011;36256;42.154;23.002;2023-07-31T14:36:45;6.38;;;5.88;;
36629;SDS011;36256;42.154;23.002;2023-07-31T14:39:12;6.68;;;6.07;;
36629;SDS011;36256;42.154;23.002;2023-07-31T14:41:39;6.10;;;5.60;;
36629;SDS011;36256;42.154;23.002;2023-07-31T14:44:06;7.00;;;6.28;;
36629;SDS011;36256;42.154;23.002;2023-07-31T14:46:32;6.20;;;5.70;;
36629;SDS011;36256;42.154;23.002;2023-07-31T14:48:59;8.13;;;6.35;;
36629;SDS011;36256;42.154;23.002;2023-07-31T14:51:26;6.47;;;5.97;;
36629;SDS011;36256;42.154;23.002;2023-07-31T14:53:53;6.03;;;5.53;;
36629;SDS011;36256;42.154;23.002;2023-07-31T14:56:19;6.18;;;5.68;;
36629;SDS011;36256;42.154;23.002;2023-07-31T14:58:46;6.28;;;5.68;;
36629;SDS011;36256;42.154;23.002;2023-07-31T15:01:12;6.70;;;6.10;;
36629;SDS011;36256;42.154;23.002;2023-07-31T15:03:39;5.78;;;5.35;;
36629;SDS011;36256;42.154;23.002;2023-07-31T15:06:06;5.82;;;5.32;;
36629;SDS011;36256;42.154;23.002;2023-07-31T15:08:34;6.05;;;5.55;;
36629;SDS011;36256;42.154;23.002;2023-07-31T15:11:02;6.20;;;5.70;;
36629;SDS011;36256;42.154;23.002;2023-07-31T15:13:29;7.18;;;5.05;;
36629;SDS011;36256;42.154;23.002;2023-07-31T15:15:55;7.10;;;5.35;;
36629;SDS011;36256;42.154;23.002;2023-07-31T15:18:24;5.45;;;5.05;;
36629;SDS011;36256;42.154;23.002;2023-07-31T15:20:51;6.00;;;5.15;;
36629;SDS011;36256;42.154;23.002;2023-07-31T15:23:17;5.30;;;4.63;;
36629;SDS011;36256;42.154;23.002;2023-07-31T15:25:44;5.45;;;4.95;;
36629;SDS011;36256;42.154;23.002;2023-07-31T15:28:11;8.85;;;4.97;;
36629;SDS011;36256;42.154;23.002;2023-07-31T15:30:38;4.90;;;4.47;;
36629;SDS011;36256;42.154;23.002;2023-07-31T15:33:05;4.68;;;4.28;;
36629;SDS011;36256;42.154;23.002;2023-07-31T15:35:32;4.97;;;4.05;;
36629;SDS011;36256;42.154;23.002;2023-07-31T15:37:59;8.68;;;4.75;;
36629;SDS011;36256;42.154;23.002;2023-07-31T15:40:25;4.95;;;3.90;;
36629;SDS011;36256;42.154;23.002;2023-07-31T15:42:52;4.60;;;4.20;;
36629;SDS011;36256;42.154;23.002;2023-07-31T15:47:46;4.50;;;4.20;;
36629;SDS011;36256;42.154;23.002;2023-07-31T15:50:12;4.45;;;4.05;;
36629;SDS011;36256;42.154;23.002;2023-07-31T15:52:39;4.20;;;3.80;;
36629;SDS011;36256;42.154;23.002;2023-07-31T15:55:06;4.40;;;4.00;;
36629;SDS011;36256;42.154;23.002;2023-07-31T15:57:33;4.10;;;3.75;;
36629;SDS011;36256;42.154;23.002;2023-07-31T16:00:00;4.88;;;4.43;;
36629;SDS011;36256;42.154;23.002;2023-07-31T16:02:26;4.30;;;4.00;;
36629;SDS011;36256;42.154;23.002;2023-07-31T16:04:53;4.10;;;3.55;;
36629;SDS011;36256;42.154;23.002;2023-07-31T16:07:20;4.28;;;3.83;;
36629;SDS011;36256;42.154;23.002;2023-07-31T16:09:47;4.10;;;3.70;;
36629;SDS011;36256;42.154;23.002;2023-07-31T16:12:14;4.10;;;3.80;;
36629;SDS011;36256;42.154;23.002;2023-07-31T16:14:41;5.60;;;3.85;;
36629;SDS011;36256;42.154;23.002;2023-07-31T16:17:07;3.78;;;3.47;;
36629;SDS011;36256;42.154;23.002;2023-07-31T16:19:34;4.47;;;3.50;;
36629;SDS011;36256;42.154;23.002;2023-07-31T16:22:01;6.35;;;3.58;;
36629;SDS011;36256;42.154;23.002;2023-07-31T16:24:27;3.67;;;3.38;;
36629;SDS011;36256;42.154;23.002;2023-07-31T16:26:54;8.90;;;3.42;;
36629;SDS011;36256;42.154;23.002;2023-07-31T16:29:21;3.47;;;3.17;;
36629;SDS011;36256;42.154;23.002;2023-07-31T16:31:48;4.13;;;3.20;;
36629;SDS011;36256;42.154;23.002;2023-07-31T16:34:23;3.83;;;3.08;;
36629;SDS011;36256;42.154;23.002;2023-07-31T16:36:53;4.55;;;3.25;;
36629;SDS011;36256;42.154;23.002;2023-07-31T16:39:23;3.80;;;3.45;;
36629;SDS011;36256;42.154;23.002;2023-07-31T16:46:43;3.92;;;3.10;;
36629;SDS011;36256;42.154;23.002;2023-07-31T16:49:10;4.40;;;2.97;;
36629;SDS011;36256;42.154;23.002;2023-07-31T16:51:37;3.30;;;3.00;;
36629;SDS011;36256;42.154;23.002;2023-07-31T16:54:04;3.08;;;2.80;;
36629;SDS011;36256;42.154;23.002;2023-07-31T16:56:31;3.03;;;2.80;;
36629;SDS011;36256;42.154;23.002;2023-07-31T16:59:17;3.25;;;2.95;;
36629;SDS011;36256;42.154;23.002;2023-07-31T17:01:44;3.10;;;2.60;;
36629;SDS011;36256;42.154;23.002;2023-07-31T17:04:11;6.32;;;2.80;;
36629;SDS011;36256;42.154;23.002;2023-07-31T17:09:06;2.90;;;2.60;;
36629;SDS011;36256;42.154;23.002;2023-07-31T17:16:29;3.30;;;2.65;;
36629;SDS011;36256;42.154;23.002;2023-07-31T17:18:58;3.00;;;2.55;;
36629;SDS011;36256;42.154;23.002;2023-07-31T17:21:24;5.60;;;2.55;;
36629;SDS011;36256;42.154;23.002;2023-07-31T17:23:52;4.90;;;2.60;;
36629;SDS011;36256;42.154;23.002;2023-07-31T17:26:19;8.95;;;3.20;;
36629;SDS011;36256;42.154;23.002;2023-07-31T17:28:46;3.25;;;2.50;;
36629;SDS011;36256;42.154;23.002;2023-07-31T17:31:13;3.28;;;2.25;;
36629;SDS011;36256;42.154;23.002;2023-07-31T17:33:40;2.50;;;2.30;;
36629;SDS011;36256;42.154;23.002;2023-07-31T17:36:06;3.35;;;2.20;;
36629;SDS011;36256;42.154;23.002;2023-07-31T17:38:33;3.05;;;2.40;;
36629;SDS011;36256;42.154;23.002;2023-07-31T17:41:00;2.75;;;2.55;;